Time;durP1;ratioP1;P1;durP2;ratioP2;P2;SDS_P1;SDS_P2;PMS_P1;PMS_P2;Temp;Humidity;BMP_temperature;BMP_pressure;BME280_temperature;BME280_humidity;BME280_pressure;Samples;Min_cycle;Max_cycle;Signal;HPM_P1;HPM_P2
2022/12/06 00:01:32;;;;;;;5.50;5.10;;;5.40;1.00;;;;;;5097423;28;20195;-80
2022/12/06 00:04:03;;;;;;;5.50;5.20;;;5.30;1.00;;;;;;5095704;28;20582;-80
2022/12/06 00:06:36;;;;;;;5.75;5.15;;;5.20;79.50;;;;;;5098683;27;20294;-79
2022/12/06 00:09:05;;;;;;;5.25;4.82;;;5.20;99.90;;;;;;5093600;28;20208;-80
2022/12/06 00:11:36;;;;;;;5.93;5.43;;;5.20;99.90;;;;;;5090502;28;20288;-80
2022/12/06 00:14:06;;;;;;;5.88;5.35;;;5.10;99.90;;;;;;5089830;28;20198;-81
2022/12/06 00:16:35;;;;;;;5.78;5.28;;;5.20;1.00;;;;;;5094405;28;20308;-80
2022/12/06 00:19:05;;;;;;;5.00;4.60;;;5.20;99.90;;;;;;5083960;28;20311;-80
2022/12/06 00:21:36;;;;;;;5.72;5.32;;;5.20;99.90;;;;;;5087510;28;20236;-82
2022/12/06 00:24:07;;;;;;;5.45;5.05;;;5.30;1.00;;;;;;5085004;28;20206;-81
2022/12/06 00:26:37;;;;;;;5.20;4.70;;;5.20;99.90;;;;;;5087948;28;20268;-81
2022/12/06 00:29:07;;;;;;;5.72;5.22;;;5.10;99.90;;;;;;5088767;28;20221;-82
2022/12/06 00:31:36;;;;;;;5.72;5.32;;;5.10;99.90;;;;;;5099222;28;20204;-80
2022/12/06 00:34:04;;;;;;;5.72;5.32;;;5.10;1.00;;;;;;5087529;28;20199;-80
2022/12/06 00:36:36;;;;;;;5.28;4.88;;;5.10;99.90;;;;;;5091887;28;20248;-80
2022/12/06 00:39:06;;;;;;;5.63;5.22;;;5.10;1.00;;;;;;5092409;28;20211;-80
2022/12/06 00:41:34;;;;;;;5.22;4.93;;;5.10;99.90;;;;;;5087410;28;20727;-80
2022/12/06 00:44:03;;;;;;;5.60;5.10;;;5.10;99.90;;;;;;5084690;28;20743;-80
2022/12/06 00:46:33;;;;;;;5.93;5.53;;;5.10;99.90;;;;;;5086241;28;20470;-80
2022/12/06 00:49:03;;;;;;;4.85;4.50;;;5.00;1.00;;;;;;5083126;28;20196;-80
2022/12/06 00:51:34;;;;;;;5.18;4.82;;;5.00;1.00;;;;;;5085773;28;20217;-81
2022/12/06 00:54:02;;;;;;;5.13;4.78;;;5.00;99.90;;;;;;5091267;28;20627;-82
2022/12/06 00:56:31;;;;;;;5.10;4.78;;;5.00;99.90;;;;;;5093775;28;20192;-83
2022/12/06 00:58:59;;;;;;;5.63;5.22;;;5.00;1.00;;;;;;5088639;28;20238;-80
2022/12/06 01:01:29;;;;;;;4.70;4.37;;;5.00;99.90;;;;;;5089243;28;20788;-80
2022/12/06 01:04:00;;;;;;;4.75;4.45;;;4.90;99.90;;;;;;5090563;28;20444;-80
2022/12/06 01:06:31;;;;;;;5.13;4.72;;;4.90;1.00;;;;;;5091799;28;20195;-81
2022/12/06 01:09:03;;;;;;;5.35;4.82;;;4.90;1.00;;;;;;5094811;28;20663;-80
2022/12/06 01:11:31;;;;;;;5.30;5.00;;;4.80;99.90;;;;;;5099961;28;20675;-79
2022/12/06 01:13:59;;;;;;;5.32;5.00;;;4.70;1.00;;;;;;5097305;28;20284;-81
2022/12/06 01:16:29;;;;;;;4.75;4.35;;;4.80;99.90;;;;;;5094771;28;20206;-80
2022/12/06 01:18:59;;;;;;;4.95;4.65;;;4.70;99.90;;;;;;5093786;28;20294;-81
2022/12/06 01:21:28;;;;;;;5.07;4.78;;;4.70;1.00;;;;;;5093023;28;20187;-81
2022/12/06 01:23:57;;;;;;;5.20;4.90;;;4.70;1.00;;;;;;5092613;28;20278;-81
2022/12/06 01:26:29;;;;;;;4.97;4.57;;;4.60;1.00;;;;;;5091485;28;20253;-82
2022/12/06 01:28:58;;;;;;;5.00;4.70;;;4.60;1.00;;;;;;5092130;28;20191;-83
2022/12/06 01:31:29;;;;;;;4.53;4.25;;;4.60;99.90;;;;;;5100015;27;20233;-82
2022/12/06 01:34:06;;;;;;;4.03;3.75;;;4.60;1.00;;;;;;5096829;28;20192;-82
2022/12/06 01:36:34;;;;;;;4.05;3.75;;;4.80;99.90;;;;;;5096991;28;20216;-82
2022/12/06 01:39:05;;;;;;;4.20;3.90;;;4.70;27.90;;;;;;5090980;28;20219;-82
2022/12/06 01:41:36;;;;;;;4.05;3.75;;;4.80;99.90;;;;;;5098269;28;20291;-82
2022/12/06 01:44:05;;;;;;;4.63;4.28;;;5.00;99.90;;;;;;5094755;28;20238;-82
2022/12/06 01:46:37;;;;;;;5.03;4.63;;;4.90;99.90;;;;;;5098902;28;20221;-82
2022/12/06 01:49:15;;;;;;;5.53;5.13;;;5.00;99.90;;;;;;5092755;27;20188;-81
2022/12/06 01:51:46;;;;;;;5.10;4.83;;;4.90;1.00;;;;;;5096581;27;20199;-82
2022/12/06 01:54:17;;;;;;;5.70;5.20;;;4.90;1.00;;;;;;5096084;27;20870;-80
2022/12/06 01:56:47;;;;;;;5.40;5.05;;;4.80;35.90;;;;;;5097566;28;20812;-82
2022/12/06 01:59:17;;;;;;;5.10;4.78;;;4.80;1.00;;;;;;5099039;28;20214;-81
2022/12/06 02:01:46;;;;;;;5.30;4.80;;;4.80;99.90;;;;;;5105242;28;20589;-82
2022/12/06 02:04:16;;;;;;;5.40;4.95;;;4.90;1.00;;;;;;5097275;28;20463;-81
2022/12/06 02:06:45;;;;;;;4.77;4.47;;;4.80;84.10;;;;;;5099526;28;20277;-81
2022/12/06 02:09:15;;;;;;;4.95;4.60;;;4.80;99.90;;;;;;5100816;28;21060;-82
2022/12/06 02:11:44;;;;;;;5.35;4.95;;;4.80;99.90;;;;;;5103854;27;20183;-81
2022/12/06 02:14:17;;;;;;;5.50;5.20;;;4.80;99.90;;;;;;5100579;28;20200;-80
2022/12/06 02:16:58;;;;;;;5.20;4.90;;;4.80;99.90;;;;;;5099289;28;20203;-81
2022/12/06 02:19:55;;;;;;;5.63;5.22;;;4.80;99.90;;;;;;5093905;28;20223;-81
2022/12/06 02:22:30;;;;;;;5.47;5.07;;;4.70;99.90;;;;;;5098287;27;20205;-79
2022/12/06 02:25:10;;;;;;;5.30;4.90;;;4.70;1.00;;;;;;5097337;28;20306;-80
2022/12/06 02:28:01;;;;;;;5.78;5.32;;;4.90;99.90;;;;;;5097610;28;20195;-81
2022/12/06 02:30:53;;;;;;;5.40;5.00;;;4.70;99.90;;;;;;5096149;28;20710;-80
2022/12/06 02:33:25;;;;;;;5.10;4.80;;;4.80;1.00;;;;;;5100877;27;20619;-79
2022/12/06 02:36:00;;;;;;;5.22;4.75;;;4.80;1.00;;;;;;5101654;28;20204;-81
2022/12/06 02:38:36;;;;;;;4.85;4.63;;;4.80;1.00;;;;;;5098945;27;20230;-83
2022/12/06 02:41:12;;;;;;;6.03;5.43;;;4.70;99.90;;;;;;5106669;27;20254;-81
2022/12/06 02:43:43;;;;;;;5.38;4.90;;;4.80;1.00;;;;;;5100268;28;20195;-81
2022/12/06 02:46:14;;;;;;;5.10;4.70;;;4.90;99.90;;;;;;5100994;27;20277;-80
2022/12/06 02:48:44;;;;;;;5.57;5.20;;;5.00;96.50;;;;;;5102788;27;20239;-82
2022/12/06 02:51:17;;;;;;;5.55;5.18;;;4.90;99.90;;;;;;5102563;28;20218;-79
2022/12/06 02:53:49;;;;;;;5.90;5.40;;;4.80;99.90;;;;;;5105400;27;20195;-81
2022/12/06 02:56:18;;;;;;;6.25;5.78;;;4.80;99.90;;;;;;5106790;28;20202;-81
2022/12/06 02:58:47;;;;;;;5.70;5.22;;;4.80;1.00;;;;;;5105041;28;20253;-81
2022/12/06 03:01:20;;;;;;;6.15;5.68;;;4.80;99.90;;;;;;5103280;28;20223;-81
2022/12/06 03:04:30;;;;;;;5.82;5.32;;;4.80;1.00;;;;;;5109174;27;20204;-82
2022/12/06 03:07:13;;;;;;;5.75;5.35;;;4.90;89.50;;;;;;5102290;28;20765;-80
2022/12/06 03:09:52;;;;;;;5.65;5.25;;;5.00;1.00;;;;;;5101297;28;20315;-81
2022/12/06 03:12:30;;;;;;;5.55;5.05;;;4.90;1.00;;;;;;5104197;28;20205;-79
2022/12/06 03:15:08;;;;;;;5.10;4.70;;;4.90;36.40;;;;;;5112321;27;20434;-82
2022/12/06 03:17:42;;;;;;;5.30;4.80;;;4.90;1.00;;;;;;5103791;28;20207;-81
2022/12/06 03:20:15;;;;;;;5.85;5.43;;;4.90;1.00;;;;;;5094827;28;20220;-80
2022/12/06 03:22:48;;;;;;;4.72;4.45;;;4.90;99.90;;;;;;5089681;28;20205;-81
2022/12/06 03:25:17;;;;;;;5.30;5.00;;;4.90;1.00;;;;;;5101133;27;20651;-82
2022/12/06 03:27:48;;;;;;;5.15;4.85;;;4.90;1.00;;;;;;5096878;27;20587;-81
2022/12/06 03:30:16;;;;;;;5.60;5.18;;;4.90;99.90;;;;;;5091187;28;20221;-82
2022/12/06 03:32:48;;;;;;;5.03;4.63;;;5.00;99.90;;;;;;5098753;27;20239;-80
2022/12/06 03:35:20;;;;;;;5.03;4.72;;;5.00;1.00;;;;;;5099050;27;20206;-79
2022/12/06 03:37:56;;;;;;;5.47;5.18;;;4.90;99.90;;;;;;5092123;28;20529;-79
2022/12/06 03:40:28;;;;;;;4.70;4.40;;;4.90;99.90;;;;;;5098180;27;20219;-81
2022/12/06 03:42:57;;;;;;;4.97;4.68;;;4.80;99.90;;;;;;5092970;28;20233;-79
2022/12/06 03:45:32;;;;;;;5.53;5.00;;;4.90;1.00;;;;;;5092428;27;20203;-80
2022/12/06 03:48:08;;;;;;;5.20;4.70;;;4.90;99.90;;;;;;5092360;28;20697;-80
2022/12/06 03:50:41;;;;;;;5.63;5.13;;;4.90;1.00;;;;;;5091521;28;20350;-81
2022/12/06 03:53:09;;;;;;;5.35;4.80;;;4.80;1.00;;;;;;5088502;28;20192;-79
2022/12/06 03:55:38;;;;;;;5.00;4.20;;;4.90;99.90;;;;;;5097788;27;20247;-81
2022/12/06 03:58:06;;;;;;;4.75;4.35;;;4.80;1.00;;;;;;5091839;28;20264;-81
2022/12/06 04:00:34;;;;;;;4.55;4.25;;;4.80;99.90;;;;;;5096109;27;20287;-80
2022/12/06 04:03:04;;;;;;;4.95;4.55;;;4.70;99.90;;;;;;5092735;28;20211;-81
2022/12/06 04:05:33;;;;;;;4.93;4.55;;;4.90;99.90;;;;;;5097701;27;20222;-82
2022/12/06 04:08:01;;;;;;;5.20;4.80;;;4.80;99.90;;;;;;5097121;28;20203;-80
2022/12/06 04:10:29;;;;;;;5.38;4.97;;;4.80;1.00;;;;;;5096784;28;20214;-81
2022/12/06 04:13:00;;;;;;;4.60;4.30;;;4.80;99.90;;;;;;5090812;27;20229;-80
2022/12/06 04:15:31;;;;;;;5.30;4.90;;;4.80;37.10;;;;;;5093017;28;20219;-81
2022/12/06 04:18:14;;;;;;;5.22;4.80;;;4.70;41.40;;;;;;5092976;28;20200;-80
2022/12/06 04:23:35;;;;;;;4.82;4.53;;;4.70;36.20;;;;;;5091694;28;20210;-81
2022/12/06 04:26:05;;;;;;;4.90;4.50;;;4.80;99.90;;;;;;5096785;28;20214;-80
2022/12/06 04:39:38;;;;;;;5.03;4.63;;;4.80;1.00;;;;;;5092805;28;20265;-81
2022/12/06 04:44:52;;;;;;;6.95;4.90;;;4.80;1.00;;;;;;5096482;28;20290;-81
2022/12/06 04:47:20;;;;;;;4.88;4.47;;;4.80;1.00;;;;;;5094467;28;20217;-81
2022/12/06 04:49:48;;;;;;;4.70;4.40;;;4.80;99.90;;;;;;5091316;28;20223;-81
2022/12/06 04:52:18;;;;;;;4.10;3.80;;;4.80;99.90;;;;;;5092645;28;20211;-80
2022/12/06 04:54:47;;;;;;;4.40;4.10;;;4.70;1.00;;;;;;5087629;28;20203;-80
2022/12/06 04:57:16;;;;;;;5.20;4.40;;;4.80;1.00;;;;;;5092641;28;20730;-81
2022/12/06 04:59:46;;;;;;;5.22;4.82;;;4.80;1.00;;;;;;5092227;28;20234;-81
2022/12/06 05:02:15;;;;;;;4.97;4.57;;;4.90;1.00;;;;;;5091588;28;20210;-81
2022/12/06 05:04:44;;;;;;;5.35;4.85;;;4.80;1.00;;;;;;5094974;27;20204;-80
2022/12/06 05:07:13;;;;;;;5.67;5.20;;;4.90;99.90;;;;;;5097859;28;20204;-80
2022/12/06 05:09:42;;;;;;;5.68;5.07;;;4.80;99.90;;;;;;5098406;27;20534;-81
2022/12/06 05:12:11;;;;;;;6.00;5.60;;;4.80;1.00;;;;;;5096143;27;20191;-80
2022/12/06 05:14:39;;;;;;;4.20;3.90;;;4.90;36.10;;;;;;5095303;27;20456;-80
2022/12/06 05:17:07;;;;;;;4.50;4.20;;;4.90;99.90;;;;;;5096539;28;20204;-80
2022/12/06 05:19:35;;;;;;;4.20;3.90;;;4.90;99.90;;;;;;5095949;28;20492;-81
2022/12/06 05:22:04;;;;;;;4.82;4.47;;;4.90;99.90;;;;;;5097085;27;20198;-82
2022/12/06 05:24:32;;;;;;;4.82;4.45;;;4.90;1.00;;;;;;5097703;28;20199;-82
2022/12/06 05:27:02;;;;;;;5.20;4.82;;;5.00;1.00;;;;;;5097139;27;20207;-80
2022/12/06 05:29:30;;;;;;;5.30;4.90;;;4.80;1.00;;;;;;5096589;27;20284;-81
2022/12/06 05:31:59;;;;;;;5.03;4.63;;;4.90;99.90;;;;;;5091640;28;20223;-80
2022/12/06 05:34:27;;;;;;;4.38;4.05;;;4.80;99.90;;;;;;5101579;28;20218;-82
2022/12/06 05:36:55;;;;;;;6.00;5.50;;;4.80;99.90;;;;;;5095297;28;20202;-81
2022/12/06 05:39:24;;;;;;;4.88;4.55;;;4.80;1.00;;;;;;5090959;28;20485;-82
2022/12/06 05:41:52;;;;;;;7.07;6.40;;;4.80;1.00;;;;;;5092467;28;20210;-81
2022/12/06 05:44:21;;;;;;;6.60;6.10;;;4.80;1.00;;;;;;5094228;27;20800;-81
2022/12/06 05:46:50;;;;;;;5.47;5.07;;;4.70;1.00;;;;;;5098821;27;20559;-80
2022/12/06 05:49:18;;;;;;;5.10;4.70;;;4.80;99.90;;;;;;5095429;28;20220;-81
2022/12/06 05:51:47;;;;;;;5.10;4.70;;;4.90;1.00;;;;;;5096943;28;20198;-82
2022/12/06 05:54:15;;;;;;;4.67;4.37;;;4.90;1.00;;;;;;5089300;28;20270;-82
2022/12/06 05:56:43;;;;;;;4.78;4.47;;;4.80;99.90;;;;;;5094612;28;20453;-82
2022/12/06 05:59:12;;;;;;;4.97;4.57;;;4.90;99.90;;;;;;5097871;27;20624;-81
2022/12/06 06:01:42;;;;;;;4.70;4.32;;;4.80;99.90;;;;;;5097728;28;20210;-81
2022/12/06 06:04:11;;;;;;;4.50;4.20;;;4.80;99.90;;;;;;5097802;28;21351;-81
2022/12/06 06:06:39;;;;;;;4.38;4.07;;;4.90;99.90;;;;;;5099234;28;20265;-81
2022/12/06 06:09:07;;;;;;;5.05;4.65;;;4.80;1.00;;;;;;5096854;28;20203;-82
2022/12/06 06:11:35;;;;;;;5.32;4.93;;;4.80;99.90;;;;;;5100767;27;20190;-81
2022/12/06 06:14:03;;;;;;;19.98;13.23;;;4.80;1.00;;;;;;5103556;27;20214;-82
2022/12/06 06:16:33;;;;;;;4.72;4.32;;;4.90;1.00;;;;;;5104800;27;20561;-82
2022/12/06 06:19:03;;;;;;;4.93;4.50;;;4.80;99.90;;;;;;5094544;27;20249;-81
2022/12/06 06:21:31;;;;;;;5.03;4.68;;;4.80;99.90;;;;;;5095804;27;20487;-81
2022/12/06 06:23:59;;;;;;;5.45;5.05;;;4.90;97.40;;;;;;5091170;28;21145;-81
2022/12/06 06:26:28;;;;;;;4.90;4.60;;;4.70;40.20;;;;;;5091602;28;20198;-82
2022/12/06 06:28:57;;;;;;;5.05;4.65;;;4.80;99.90;;;;;;5090177;28;20327;-81
2022/12/06 06:31:25;;;;;;;5.63;5.22;;;4.80;3.10;;;;;;5096933;27;20192;-81
2022/12/06 06:33:53;;;;;;;5.30;4.80;;;4.90;6.80;;;;;;5086328;28;20689;-81
2022/12/06 06:36:23;;;;;;;4.68;4.38;;;4.80;99.90;;;;;;5087880;28;20256;-81
2022/12/06 06:38:51;;;;;;;5.35;4.85;;;4.80;99.90;;;;;;5091687;28;20230;-81
2022/12/06 06:41:20;;;;;;;4.50;4.28;;;4.90;99.90;;;;;;5093531;28;20237;-80
2022/12/06 06:43:48;;;;;;;5.35;4.88;;;4.80;99.90;;;;;;5093804;28;20202;-81
2022/12/06 06:46:17;;;;;;;5.30;4.90;;;4.80;99.90;;;;;;5091072;28;20208;-81
2022/12/06 06:48:45;;;;;;;5.10;4.80;;;4.80;99.90;;;;;;5091898;28;20206;-81
2022/12/06 06:51:14;;;;;;;4.95;4.47;;;4.80;99.90;;;;;;5092152;28;20218;-80
2022/12/06 06:53:43;;;;;;;5.82;5.43;;;4.80;99.90;;;;;;5092154;28;20210;-81
2022/12/06 06:56:13;;;;;;;5.22;4.72;;;4.80;1.00;;;;;;5094529;28;20211;-81
2022/12/06 06:58:41;;;;;;;6.53;5.93;;;4.80;1.00;;;;;;5093989;28;20211;-80
2022/12/06 07:01:16;;;;;;;5.93;5.18;;;4.70;55.30;;;;;;5093421;28;20223;-81
2022/12/06 07:03:44;;;;;;;5.63;5.13;;;4.70;99.90;;;;;;5091371;28;20199;-80
2022/12/06 07:06:13;;;;;;;5.03;4.65;;;4.70;99.90;;;;;;5095755;28;20199;-80
2022/12/06 07:08:43;;;;;;;5.05;4.75;;;4.80;99.90;;;;;;5095166;28;20249;-81
2022/12/06 07:11:12;;;;;;;7.03;5.30;;;4.80;1.00;;;;;;5099400;28;20214;-82
2022/12/06 07:13:42;;;;;;;5.35;4.93;;;4.80;1.00;;;;;;5101815;28;20203;-81
2022/12/06 07:16:19;;;;;;;5.43;5.03;;;4.80;99.90;;;;;;5091236;27;20214;-80
2022/12/06 07:18:48;;;;;;;4.97;4.63;;;4.80;1.00;;;;;;5095597;28;20229;-81
2022/12/06 07:21:17;;;;;;;5.45;4.95;;;4.80;1.00;;;;;;5097380;28;20231;-80
2022/12/06 07:23:46;;;;;;;5.43;5.03;;;4.90;99.90;;;;;;5099158;28;20207;-81
2022/12/06 07:26:17;;;;;;;5.55;5.15;;;4.90;1.00;;;;;;5100202;28;20685;-80
2022/12/06 07:28:47;;;;;;;9.32;5.88;;;4.90;1.00;;;;;;5094855;27;20199;-79
2022/12/06 07:31:17;;;;;;;6.32;5.72;;;4.70;99.90;;;;;;5097718;28;20234;-80
2022/12/06 07:33:47;;;;;;;6.32;5.72;;;4.70;99.90;;;;;;5098841;28;20192;-81
2022/12/06 07:36:16;;;;;;;6.47;5.95;;;4.60;99.90;;;;;;5092096;28;20211;-78
2022/12/06 07:38:49;;;;;;;5.68;5.25;;;4.70;99.90;;;;;;5094033;28;20199;-80
2022/12/06 07:46:51;;;;;;;7.03;6.43;;;4.60;1.00;;;;;;5096164;28;20195;-80
2022/12/06 07:49:19;;;;;;;8.18;7.57;;;4.70;1.00;;;;;;5094684;28;20211;-79
2022/12/06 07:51:48;;;;;;;8.48;6.05;;;4.60;99.90;;;;;;5089029;28;20194;-80
2022/12/06 07:54:17;;;;;;;7.40;6.57;;;4.60;99.90;;;;;;5096194;28;20203;-80
2022/12/06 07:56:46;;;;;;;8.20;6.53;;;4.60;1.00;;;;;;5089968;28;20225;-80
2022/12/06 07:59:14;;;;;;;6.05;5.55;;;4.60;99.90;;;;;;5092553;28;20671;-80
2022/12/06 08:01:42;;;;;;;5.55;5.15;;;4.60;1.00;;;;;;5090514;27;20417;-79
2022/12/06 08:04:11;;;;;;;6.30;5.80;;;4.60;99.90;;;;;;5087888;28;20677;-80
2022/12/06 08:06:40;;;;;;;5.90;5.40;;;4.60;1.00;;;;;;5095113;28;20207;-80
2022/12/06 08:09:09;;;;;;;7.55;6.35;;;4.70;71.90;;;;;;5093073;28;20203;-80
2022/12/06 08:11:38;;;;;;;6.18;5.70;;;4.70;99.90;;;;;;5087854;28;20197;-80
2022/12/06 08:14:07;;;;;;;6.18;5.30;;;4.70;53.90;;;;;;5094201;28;20200;-80
2022/12/06 08:16:35;;;;;;;5.90;5.50;;;4.70;1.00;;;;;;5089906;28;20742;-79
2022/12/06 08:19:03;;;;;;;7.30;6.03;;;4.70;1.00;;;;;;5093030;28;20210;-80
2022/12/06 08:21:31;;;;;;;12.23;6.60;;;4.70;99.90;;;;;;5090690;28;20675;-80
2022/12/06 08:24:01;;;;;;;6.47;5.97;;;4.80;99.90;;;;;;5086173;28;20202;-80
2022/12/06 08:26:29;;;;;;;7.50;6.72;;;4.80;99.90;;;;;;5089893;28;20260;-80
2022/12/06 08:29:01;;;;;;;7.07;6.47;;;4.80;99.90;;;;;;5088802;28;20206;-80
2022/12/06 08:31:33;;;;;;;7.22;6.63;;;4.80;99.90;;;;;;5088466;28;20187;-80
2022/12/06 08:34:02;;;;;;;7.35;6.65;;;4.80;1.00;;;;;;5090973;28;20677;-80
2022/12/06 08:36:30;;;;;;;6.80;6.30;;;4.80;99.90;;;;;;5086158;28;20198;-80
2022/12/06 08:38:59;;;;;;;8.25;7.47;;;4.80;99.90;;;;;;5086250;28;20199;-80
2022/12/06 08:44:16;;;;;;;6.32;5.75;;;4.90;99.90;;;;;;5089264;28;20206;-79
2022/12/06 08:46:45;;;;;;;7.03;6.43;;;4.80;99.90;;;;;;5085832;28;20199;-80
2022/12/06 08:49:16;;;;;;;6.40;5.90;;;4.70;27.50;;;;;;5087586;28;20623;-79
2022/12/06 08:51:45;;;;;;;7.13;6.53;;;4.70;27.50;;;;;;5092739;28;20281;-79
2022/12/06 08:54:16;;;;;;;6.83;6.23;;;4.80;99.90;;;;;;5087154;28;20223;-79
2022/12/06 08:56:44;;;;;;;6.30;5.80;;;4.70;99.90;;;;;;5092840;28;20965;-79
2022/12/06 08:59:14;;;;;;;8.77;6.82;;;4.80;99.90;;;;;;5089726;28;20199;-80
2022/12/06 09:01:44;;;;;;;7.20;6.40;;;4.80;1.00;;;;;;5089550;28;20215;-80
2022/12/06 09:04:12;;;;;;;7.88;6.70;;;4.80;1.00;;;;;;5086468;28;20472;-79
2022/12/06 09:06:42;;;;;;;6.60;6.10;;;4.80;1.00;;;;;;5092950;28;20203;-79
2022/12/06 09:09:12;;;;;;;7.43;6.72;;;4.90;99.90;;;;;;5089810;28;20465;-78
2022/12/06 09:11:41;;;;;;;7.13;6.50;;;5.00;86.70;;;;;;5092743;28;20627;-79
2022/12/06 09:14:12;;;;;;;6.00;5.43;;;5.10;1.00;;;;;;5087103;28;20452;-79
2022/12/06 09:16:51;;;;;;;6.18;5.60;;;5.10;99.90;;;;;;5093670;28;20279;-79
2022/12/06 09:19:19;;;;;;;6.60;6.10;;;5.10;99.90;;;;;;5090065;28;20290;-78
2022/12/06 09:21:48;;;;;;;7.05;6.45;;;5.10;1.00;;;;;;5089973;28;20228;-79
2022/12/06 09:24:18;;;;;;;7.50;6.18;;;5.10;15.20;;;;;;5089876;28;20283;-82
2022/12/06 09:26:46;;;;;;;6.18;5.70;;;5.10;58.90;;;;;;5090231;28;20736;-80
2022/12/06 09:29:16;;;;;;;6.95;6.35;;;5.10;1.00;;;;;;5089998;28;20297;-79
2022/12/06 09:31:45;;;;;;;6.50;6.03;;;5.20;1.00;;;;;;5090382;28;21287;-79
2022/12/06 09:34:15;;;;;;;6.32;5.82;;;5.20;99.90;;;;;;5089488;28;20210;-80
2022/12/06 09:36:48;;;;;;;6.70;6.20;;;5.20;99.90;;;;;;5087597;28;20195;-79
2022/12/06 09:39:19;;;;;;;5.88;5.47;;;5.20;1.00;;;;;;5090551;28;20218;-80
2022/12/06 09:42:19;;;;;;;6.30;5.90;;;5.30;99.90;;;;;;5096264;28;20208;-79
2022/12/06 09:45:06;;;;;;;7.35;6.75;;;5.50;1.00;;;;;;5092678;28;20661;-79
2022/12/06 09:47:48;;;;;;;10.80;9.85;;;5.40;99.90;;;;;;5089494;28;20376;-79
2022/12/06 09:50:25;;;;;;;8.20;7.40;;;5.40;99.90;;;;;;5094787;28;20273;-79
2022/12/06 09:53:14;;;;;;;7.63;7.05;;;5.40;1.00;;;;;;5098686;27;20449;-78
2022/12/06 09:55:52;;;;;;;8.23;7.53;;;5.50;1.00;;;;;;5102627;28;20207;-80
2022/12/06 09:58:34;;;;;;;8.07;6.93;;;5.60;99.90;;;;;;5094824;28;20210;-80
2022/12/06 10:01:15;;;;;;;8.55;7.85;;;5.60;99.90;;;;;;5096818;27;20230;-79
2022/12/06 10:03:57;;;;;;;7.70;6.95;;;5.60;99.90;;;;;;5092228;28;20191;-79
2022/12/06 10:06:36;;;;;;;8.48;7.60;;;5.60;1.00;;;;;;5095335;28;20241;-79
2022/12/06 10:09:16;;;;;;;8.63;7.95;;;5.50;99.90;;;;;;5094315;28;20349;-79
2022/12/06 10:11:57;;;;;;;8.52;7.72;;;5.70;99.90;;;;;;5091800;27;20769;-80
2022/12/06 10:14:37;;;;;;;8.30;7.70;;;5.70;99.90;;;;;;5095640;28;20278;-80
2022/12/06 10:17:20;;;;;;;8.27;7.50;;;5.70;99.70;;;;;;5098444;28;20465;-83
2022/12/06 10:19:59;;;;;;;8.70;7.90;;;5.80;99.90;;;;;;5105252;28;20478;-80
2022/12/06 10:22:36;;;;;;;9.13;8.43;;;5.70;13.20;;;;;;5094006;28;20461;-79
2022/12/06 10:25:11;;;;;;;9.57;8.77;;;5.80;1.30;;;;;;5088573;28;20248;-80
2022/12/06 10:27:47;;;;;;;11.70;10.50;;;5.70;99.90;;;;;;5085362;28;20533;-80
2022/12/06 10:30:17;;;;;;;13.13;11.70;;;5.60;99.90;;;;;;5089516;28;20497;-80
2022/12/06 10:32:55;;;;;;;9.43;8.63;;;5.70;99.90;;;;;;5096303;28;21108;-80
2022/12/06 10:35:38;;;;;;;10.40;9.53;;;5.70;99.90;;;;;;5096855;28;20448;-81
2022/12/06 10:38:20;;;;;;;10.77;9.80;;;5.60;99.90;;;;;;5095566;28;20448;-80
2022/12/06 10:40:57;;;;;;;11.65;10.00;;;5.60;1.00;;;;;;5107180;28;20481;-81
2022/12/06 10:43:32;;;;;;;11.83;10.63;;;5.60;1.00;;;;;;5106638;28;20227;-79
2022/12/06 10:49:01;;;;;;;11.53;10.40;;;5.60;1.00;;;;;;5092658;28;20835;-80
2022/12/06 10:51:40;;;;;;;14.17;11.27;;;5.60;1.00;;;;;;5090412;28;20448;-80
2022/12/06 10:54:22;;;;;;;12.80;11.60;;;5.60;1.00;;;;;;5093475;28;20464;-81
2022/12/06 10:56:53;;;;;;;12.97;11.57;;;5.70;1.00;;;;;;5091830;28;21023;-80
2022/12/06 10:59:30;;;;;;;10.55;9.63;;;5.60;1.00;;;;;;5094137;28;20500;-79
2022/12/06 11:02:04;;;;;;;13.60;12.20;;;5.70;1.00;;;;;;5091302;28;20226;-80
2022/12/06 11:04:35;;;;;;;13.73;12.30;;;5.70;1.00;;;;;;5099781;28;20445;-78
2022/12/06 11:07:12;;;;;;;12.20;10.97;;;5.60;1.00;;;;;;5091698;28;20969;-80
2022/12/06 11:09:44;;;;;;;11.40;10.33;;;5.60;99.90;;;;;;5095874;28;20473;-80
2022/12/06 11:12:21;;;;;;;12.50;11.20;;;5.70;1.00;;;;;;5092204;28;20454;-79
2022/12/06 11:15:02;;;;;;;12.57;11.00;;;5.60;99.90;;;;;;5093593;28;20278;-79
2022/12/06 11:17:34;;;;;;;12.20;11.10;;;5.60;99.90;;;;;;5093072;28;20448;-79
2022/12/06 11:20:10;;;;;;;12.57;11.23;;;5.70;1.00;;;;;;5090004;28;20489;-79
2022/12/06 11:22:45;;;;;;;11.03;10.00;;;5.80;1.00;;;;;;5094163;28;20522;-79
2022/12/06 11:25:21;;;;;;;10.95;9.95;;;5.80;1.00;;;;;;5096364;28;20457;-79
2022/12/06 11:27:52;;;;;;;11.13;10.02;;;5.80;1.00;;;;;;5088065;28;20233;-79
2022/12/06 11:30:21;;;;;;;11.73;10.63;;;5.80;12.20;;;;;;5094241;28;20227;-79
2022/12/06 11:32:52;;;;;;;12.57;11.38;;;5.80;99.90;;;;;;5092024;28;20454;-80
2022/12/06 11:35:23;;;;;;;11.85;10.75;;;5.80;1.00;;;;;;5089953;28;20191;-79
2022/12/06 11:37:57;;;;;;;12.47;11.37;;;5.80;99.90;;;;;;5085210;27;20199;-79
2022/12/06 11:40:30;;;;;;;14.30;12.87;;;5.80;1.00;;;;;;5083102;28;21350;-79
2022/12/06 11:43:01;;;;;;;14.57;13.27;;;5.80;1.00;;;;;;5086805;28;20452;-79
2022/12/06 11:45:32;;;;;;;12.75;11.13;;;5.80;99.90;;;;;;5086340;28;20214;-79
2022/12/06 11:48:11;;;;;;;13.48;11.90;;;5.80;99.90;;;;;;5092633;28;20196;-79
2022/12/06 11:50:41;;;;;;;13.20;11.80;;;5.70;99.90;;;;;;5089060;28;20269;-80
2022/12/06 11:53:17;;;;;;;13.37;12.03;;;5.70;99.90;;;;;;5090761;28;20442;-80
2022/12/06 11:55:51;;;;;;;13.23;11.40;;;5.70;1.00;;;;;;5088175;28;20456;-80
2022/12/06 11:58:26;;;;;;;13.47;10.80;;;5.80;99.90;;;;;;5093951;28;20512;-81
2022/12/06 12:01:01;;;;;;;12.90;11.60;;;5.80;1.00;;;;;;5094122;28;20465;-81
2022/12/06 12:03:33;;;;;;;13.40;11.90;;;5.80;99.90;;;;;;5107686;27;20473;-79
2022/12/06 12:06:27;;;;;;;12.90;11.20;;;5.80;99.90;;;;;;5095017;28;20455;-80
2022/12/06 12:08:59;;;;;;;14.00;11.73;;;5.80;99.90;;;;;;5088578;28;20807;-80
2022/12/06 12:11:31;;;;;;;20.23;13.10;;;5.80;1.00;;;;;;5090248;27;20496;-81
2022/12/06 12:14:02;;;;;;;16.10;12.03;;;5.80;99.90;;;;;;5088396;28;20818;-81
2022/12/06 12:16:35;;;;;;;14.83;11.20;;;5.70;99.90;;;;;;5079217;28;20496;-80
2022/12/06 12:19:06;;;;;;;12.27;10.90;;;5.70;99.90;;;;;;5103189;27;20485;-81
2022/12/06 12:21:38;;;;;;;13.20;11.57;;;5.70;1.00;;;;;;5081600;28;20490;-80
2022/12/06 12:24:31;;;;;;;10.77;9.63;;;5.70;99.90;;;;;;5091704;28;20531;-80
2022/12/06 12:27:01;;;;;;;10.90;9.90;;;5.70;1.00;;;;;;5085537;28;20544;-78
2022/12/06 12:29:29;;;;;;;13.57;11.10;;;5.90;99.90;;;;;;5094144;28;20474;-81
2022/12/06 12:31:59;;;;;;;11.53;10.30;;;5.80;1.00;;;;;;5090597;28;20455;-80
2022/12/06 12:34:29;;;;;;;12.50;9.77;;;5.80;58.10;;;;;;5081226;28;20456;-78
2022/12/06 12:37:00;;;;;;;10.60;9.43;;;5.70;99.90;;;;;;5083552;28;20438;-80
2022/12/06 12:39:34;;;;;;;11.37;10.20;;;5.80;99.90;;;;;;5088761;28;20545;-80
2022/12/06 12:42:04;;;;;;;11.53;9.17;;;5.80;11.20;;;;;;5103729;27;20485;-81
2022/12/06 12:44:37;;;;;;;13.70;10.37;;;5.70;99.90;;;;;;5081675;28;20469;-79
2022/12/06 12:47:17;;;;;;;10.40;9.40;;;5.80;1.00;;;;;;5086925;28;20449;-80
2022/12/06 12:50:18;;;;;;;10.10;9.10;;;5.80;1.00;;;;;;5088231;28;20536;-79
2022/12/06 12:52:47;;;;;;;11.63;9.10;;;5.70;1.00;;;;;;5090968;28;20464;-81
2022/12/06 12:55:18;;;;;;;11.77;9.60;;;5.60;1.00;;;;;;5097398;28;20453;-81
2022/12/06 12:57:50;;;;;;;9.57;8.17;;;5.50;99.90;;;;;;5081846;28;20589;-79
2022/12/06 13:00:20;;;;;;;9.50;8.33;;;5.50;99.90;;;;;;5084995;28;20469;-80
2022/12/06 13:02:52;;;;;;;8.00;7.30;;;5.50;99.90;;;;;;5088286;28;20834;-80
2022/12/06 13:05:24;;;;;;;9.57;8.33;;;5.50;99.90;;;;;;5093246;28;20463;-80
2022/12/06 13:08:07;;;;;;;9.97;7.67;;;5.50;99.90;;;;;;5088565;28;20571;-78
2022/12/06 13:10:39;;;;;;;7.87;7.07;;;5.60;99.90;;;;;;5087694;28;20931;-80
2022/12/06 13:13:15;;;;;;;8.67;7.97;;;5.60;1.00;;;;;;5086887;28;20453;-80
2022/12/06 13:15:46;;;;;;;7.10;6.40;;;5.60;99.90;;;;;;5099754;28;20453;-81
2022/12/06 13:18:22;;;;;;;7.03;6.43;;;5.60;1.00;;;;;;5090114;28;20521;-80
2022/12/06 13:20:53;;;;;;;6.70;5.63;;;5.60;1.00;;;;;;5089646;28;20477;-80
2022/12/06 13:23:25;;;;;;;7.30;5.23;;;5.60;99.90;;;;;;5091054;28;20473;-81
2022/12/06 13:26:00;;;;;;;5.80;5.40;;;5.50;99.90;;;;;;5094725;28;20457;-81
2022/12/06 13:28:35;;;;;;;10.63;7.80;;;5.50;99.90;;;;;;5092784;28;20199;-80
2022/12/06 13:31:07;;;;;;;5.07;4.77;;;5.40;1.00;;;;;;5091653;28;20943;-81
2022/12/06 13:33:44;;;;;;;5.90;5.43;;;5.40;1.00;;;;;;5094965;28;20461;-81
2022/12/06 13:36:14;;;;;;;6.00;5.53;;;5.50;99.90;;;;;;5094557;28;20944;-80
2022/12/06 13:38:43;;;;;;;4.80;4.50;;;5.60;1.00;;;;;;5091812;28;20964;-80
2022/12/06 13:41:14;;;;;;;5.43;4.93;;;5.50;99.90;;;;;;5092126;28;20219;-80
2022/12/06 13:43:53;;;;;;;6.60;5.17;;;5.50;99.90;;;;;;5088634;28;20469;-79
2022/12/06 13:46:39;;;;;;;5.50;5.10;;;5.40;99.90;;;;;;5092948;28;20468;-80
2022/12/06 13:49:41;;;;;;;5.50;5.13;;;5.40;99.90;;;;;;5090642;28;20503;-80
2022/12/06 13:53:01;;;;;;;6.70;6.17;;;5.50;99.90;;;;;;5089331;27;20448;-80